Time,TemperatureF,DewpointF,PressureIn,WindDirection,WindDirectionDegrees,WindSpeedMPH,WindSpeedGustMPH,Humidity,HourlyPrecipIn,Conditions,Clouds,dailyrainin,SoftwareType,DateUTC
2016-08-25 00:07:00,67.6,63.7,30.32,SE,145,0.0,0.0,87,0.00,,,0.00,meteohub,2016-08-25 04:07:00,
2016-08-25 00:12:00,67.5,63.5,30.32,SE,145,0.0,0.0,87,0.00,,,0.00,meteohub,2016-08-25 04:12:00,
2016-08-25 00:17:00,67.5,63.9,30.32,SE,145,0.0,0.0,88,0.00,,,0.00,meteohub,2016-08-25 04:17:00,
2016-08-25 00:22:00,67.5,63.9,30.32,SE,145,0.0,0.0,88,0.00,,,0.00,meteohub,2016-08-25 04:22:00,
2016-08-25 00:27:00,67.5,63.9,30.32,SE,145,0.0,0.0,88,0.00,,,0.00,meteohub,2016-08-25 04:27:00,
2016-08-25 00:32:00,67.3,63.7,30.32,SSW,212,0.0,0.0,88,0.00,,,0.00,meteohub,2016-08-25 04:32:00,
2016-08-25 00:37:00,67.3,63.7,30.32,South,190,0.0,0.0,88,0.00,,,0.00,meteohub,2016-08-25 04:37:00,
2016-08-25 00:42:00,67.1,63.5,30.32,South,190,0.0,0.0,88,0.00,,,0.00,meteohub,2016-08-25 04:42:00,
2016-08-25 00:47:00,67.1,63.5,30.32,South,190,0.0,0.0,88,0.00,,,0.00,meteohub,2016-08-25 04:47:00,
2016-08-25 00:52:00,66.9,63.3,30.23,South,190,0.0,0.0,88,0.00,,,0.00,meteohub,2016-08-25 04:52:00,
2016-08-25 01:02:00,66.9,63.3,30.23,South,190,0.0,0.0,88,0.00,,,0.00,meteohub,2016-08-25 05:02:00,
2016-08-25 01:07:00,66.7,63.3,30.32,South,190,0.0,0.0,89,0.00,,,0.00,meteohub,2016-08-25 05:07:00,
2016-08-25 01:12:00,66.9,63.5,30.32,SE,145,0.0,0.0,89,0.00,,,0.00,meteohub,2016-08-25 05:12:00,
2016-08-25 01:17:00,66.9,63.5,30.32,SE,145,0.0,0.0,89,0.00,,,0.00,meteohub,2016-08-25 05:17:00,
2016-08-25 01:22:00,66.9,63.5,30.32,SE,145,0.0,0.0,89,0.00,,,0.00,meteohub,2016-08-25 05:22:00,
2016-08-25 01:27:00,66.9,63.5,30.32,SSW,212,0.0,0.0,89,0.00,,,0.00,meteohub,2016-08-25 05:27:00,
2016-08-25 01:32:00,66.7,63.3,30.29,SSW,212,0.0,0.0,89,0.00,,,0.00,meteohub,2016-08-25 05:32:00,
2016-08-25 01:37:00,66.7,63.3,30.29,SSW,212,0.0,0.0,89,0.00,,,0.00,meteohub,2016-08-25 05:37:00,
2016-08-25 01:42:00,66.7,63.3,30.29,SSW,212,0.0,0.0,89,0.00,,,0.00,meteohub,2016-08-25 05:42:00,
2016-08-25 01:47:00,66.6,63.1,30.29,SSW,212,0.0,0.0,89,0.00,,,0.00,meteohub,2016-08-25 05:47:00,
2016-08-25 01:52:00,66.6,63.1,30.29,South,190,0.0,0.0,89,0.00,,,0.00,meteohub,2016-08-25 05:52:00,
2016-08-25 01:57:00,66.6,63.5,30.29,SSE,168,0.0,0.0,90,0.00,,,0.00,meteohub,2016-08-25 05:57:00,
2016-08-25 02:02:00,66.6,63.5,30.29,SSE,168,0.0,0.0,90,0.00,,,0.00,meteohub,2016-08-25 06:02:00,
2016-08-25 02:07:00,66.4,63.3,30.29,SE,145,0.0,0.0,90,0.00,,,0.00,meteohub,2016-08-25 06:07:00,
2016-08-25 02:17:00,66.4,63.3,30.29,East,100,0.0,0.0,90,0.00,,,0.00,meteohub,2016-08-25 06:17:00,
2016-08-25 02:22:00,66.6,63.5,30.29,SE,145,0.0,0.0,90,0.00,,,0.00,meteohub,2016-08-25 06:22:00,
2016-08-25 02:32:00,66.4,63.3,30.32,SE,145,0.0,0.0,90,0.00,,,0.00,meteohub,2016-08-25 06:32:00,
2016-08-25 02:37:00,66.4,63.3,30.32,SE,145,0.0,0.0,90,0.00,,,0.00,meteohub,2016-08-25 06:37:00,
2016-08-25 02:42:00,66.4,63.3,30.32,WSW,258,0.0,0.0,90,0.00,,,0.00,meteohub,2016-08-25 06:42:00,
2016-08-25 02:47:00,66.4,63.3,30.29,SW,235,0.0,0.0,90,0.00,,,0.00,meteohub,2016-08-25 06:47:00,
2016-08-25 02:52:00,66.2,63.1,30.29,South,190,0.0,0.0,90,0.00,,,0.00,meteohub,2016-08-25 06:52:00,
2016-08-25 03:02:00,66.2,63.1,30.29,South,190,0.0,0.0,90,0.00,,,0.00,meteohub,2016-08-25 07:02:00,
2016-08-25 03:07:00,66.0,63.3,30.29,NW,325,0.0,0.0,91,0.00,,,0.00,meteohub,2016-08-25 07:07:00,
2016-08-25 03:12:00,66.0,63.3,30.29,NW,325,0.0,0.0,91,0.00,,,0.00,meteohub,2016-08-25 07:12:00,
2016-08-25 03:17:00,66.0,63.3,30.26,NW,325,0.0,0.0,91,0.00,,,0.00,meteohub,2016-08-25 07:17:00,
2016-08-25 03:22:00,66.0,63.3,30.26,WSW,258,0.0,0.0,91,0.00,,,0.00,meteohub,2016-08-25 07:22:00,
2016-08-25 03:27:00,66.0,63.3,30.26,SSE,168,0.0,0.0,91,0.00,,,0.00,meteohub,2016-08-25 07:27:00,
2016-08-25 03:32:00,66.0,63.3,30.29,SSE,168,0.0,0.0,91,0.00,,,0.00,meteohub,2016-08-25 07:32:00,
2016-08-25 03:37:00,65.8,63.1,30.29,East,100,0.0,0.0,91,0.00,,,0.00,meteohub,2016-08-25 07:37:00,
2016-08-25 03:42:00,66.0,63.3,30.29,East,100,0.0,0.0,91,0.00,,,0.00,meteohub,2016-08-25 07:42:00,
2016-08-25 03:47:00,65.8,63.1,30.29,East,100,0.0,0.0,91,0.00,,,0.00,meteohub,2016-08-25 07:47:00,
2016-08-25 03:52:00,66.0,63.3,30.29,SSE,168,0.0,0.0,91,0.00,,,0.00,meteohub,2016-08-25 07:52:00,
2016-08-25 04:02:00,65.8,63.1,30.29,SE,145,0.0,0.0,91,0.00,,,0.00,meteohub,2016-08-25 08:02:00,
2016-08-25 04:07:00,65.8,63.1,30.29,SE,145,0.0,0.0,91,0.00,,,0.00,meteohub,2016-08-25 08:07:00,
2016-08-25 04:12:00,65.8,63.1,30.29,SE,145,0.0,0.0,91,0.00,,,0.00,meteohub,2016-08-25 08:12:00,
2016-08-25 04:17:00,65.7,63.0,30.29,South,190,0.0,0.0,91,0.00,,,0.00,meteohub,2016-08-25 08:17:00,
2016-08-25 04:22:00,65.8,63.1,30.29,SE,145,0.0,0.0,91,0.00,,,0.00,meteohub,2016-08-25 08:22:00,
2016-08-25 04:27:00,65.8,63.1,30.29,SSE,168,0.0,0.0,91,0.00,,,0.00,meteohub,2016-08-25 08:27:00,
2016-08-25 04:32:00,65.8,63.1,30.29,SSE,168,0.0,0.0,91,0.00,,,0.00,meteohub,2016-08-25 08:32:00,
2016-08-25 04:37:00,65.8,63.1,30.29,SE,145,0.0,0.0,91,0.00,,,0.00,meteohub,2016-08-25 08:37:00,
2016-08-25 04:42:00,65.8,63.1,30.29,ESE,122,0.0,0.0,91,0.00,,,0.00,meteohub,2016-08-25 08:42:00,
2016-08-25 04:47:00,65.7,63.0,30.29,SE,145,0.0,0.0,91,0.00,,,0.00,meteohub,2016-08-25 08:47:00,
2016-08-25 04:52:00,65.7,63.0,30.29,SE,145,0.0,0.0,91,0.00,,,0.00,meteohub,2016-08-25 08:52:00,
2016-08-25 04:57:00,65.5,62.8,30.29,SSE,168,0.0,0.0,91,0.00,,,0.00,meteohub,2016-08-25 08:57:00,
2016-08-25 05:02:00,65.5,62.8,30.29,SSW,212,0.0,0.0,91,0.00,,,0.00,meteohub,2016-08-25 09:02:00,
2016-08-25 05:07:00,65.5,62.8,30.29,SSE,168,0.0,0.0,91,0.00,,,0.00,meteohub,2016-08-25 09:07:00,
2016-08-25 05:12:00,65.5,62.8,30.29,SSW,212,0.0,0.0,91,0.00,,,0.00,meteohub,2016-08-25 09:12:00,
2016-08-25 05:17:00,65.5,63.1,30.29,SSE,168,0.0,0.0,92,0.00,,,0.00,meteohub,2016-08-25 09:17:00,
2016-08-25 05:22:00,65.5,63.1,30.29,East,100,0.0,0.0,92,0.00,,,0.00,meteohub,2016-08-25 09:22:00,
2016-08-25 05:27:00,65.5,63.1,30.29,ESE,122,0.0,0.0,92,0.00,,,0.00,meteohub,2016-08-25 09:27:00,
2016-08-25 05:32:00,65.5,63.1,30.29,SE,145,0.0,0.0,92,0.00,,,0.00,meteohub,2016-08-25 09:32:00,
2016-08-25 05:37:00,65.5,63.1,30.29,ESE,122,0.0,0.0,92,0.00,,,0.00,meteohub,2016-08-25 09:37:00,
2016-08-25 05:42:00,65.5,63.1,30.29,SE,145,0.0,0.0,92,0.00,,,0.00,meteohub,2016-08-25 09:42:00,
2016-08-25 05:47:00,65.5,63.1,30.29,SE,145,0.0,0.0,92,0.00,,,0.00,meteohub,2016-08-25 09:47:00,
2016-08-25 05:52:00,65.3,62.6,30.29,SSE,168,0.0,0.0,91,0.00,,,0.00,meteohub,2016-08-25 09:52:00,
2016-08-25 05:57:00,65.3,63.0,30.29,East,100,0.0,0.0,92,0.00,,,0.00,meteohub,2016-08-25 09:57:00,
2016-08-25 06:02:00,65.3,63.0,30.29,SE,145,0.0,0.0,92,0.00,,,0.00,meteohub,2016-08-25 10:02:00,
2016-08-25 06:07:00,65.3,63.0,30.29,SSE,168,0.0,0.0,92,0.00,,,0.00,meteohub,2016-08-25 10:07:00,
2016-08-25 06:12:00,65.1,62.8,30.29,SE,145,0.0,0.0,92,0.00,,,0.00,meteohub,2016-08-25 10:12:00,
2016-08-25 06:17:00,65.1,62.8,30.29,SE,145,0.0,0.0,92,0.00,,,0.00,meteohub,2016-08-25 10:17:00,
2016-08-25 06:22:00,65.1,62.8,30.29,ESE,122,0.0,0.0,92,0.00,,,0.00,meteohub,2016-08-25 10:22:00,
2016-08-25 06:27:00,65.3,63.0,30.29,SE,145,0.0,0.0,92,0.00,,,0.00,meteohub,2016-08-25 10:27:00,
2016-08-25 06:32:00,65.3,63.0,30.29,SE,145,0.0,0.0,92,0.00,,,0.00,meteohub,2016-08-25 10:32:00,
2016-08-25 06:37:00,65.1,62.8,30.29,SSW,212,0.0,0.0,92,0.00,,,0.00,meteohub,2016-08-25 10:37:00,
2016-08-25 06:42:00,65.1,62.8,30.29,South,190,0.0,0.0,92,0.00,,,0.00,meteohub,2016-08-25 10:42:00,
2016-08-25 06:47:00,65.1,62.8,30.29,South,190,0.0,0.0,92,0.00,,,0.00,meteohub,2016-08-25 10:47:00,
2016-08-25 06:52:00,65.3,63.0,30.29,SSE,168,0.0,0.0,92,0.00,,,0.00,meteohub,2016-08-25 10:52:00,
2016-08-25 06:57:00,65.1,62.8,30.29,SE,145,0.0,0.0,92,0.00,,,0.00,meteohub,2016-08-25 10:57:00,
2016-08-25 07:07:00,65.3,63.0,30.29,SSE,168,0.0,0.0,92,0.00,,,0.00,meteohub,2016-08-25 11:07:00,
2016-08-25 07:12:00,65.1,62.8,30.29,SE,145,0.0,0.0,92,0.00,,,0.00,meteohub,2016-08-25 11:12:00,
2016-08-25 07:17:00,65.1,62.8,30.29,South,190,0.0,0.0,92,0.00,,,0.00,meteohub,2016-08-25 11:17:00,
2016-08-25 07:22:00,65.1,62.8,30.29,SE,145,0.0,0.0,92,0.00,,,0.00,meteohub,2016-08-25 11:22:00,
2016-08-25 07:32:00,65.1,62.8,30.29,NW,325,0.0,0.0,92,0.00,,,0.00,meteohub,2016-08-25 11:32:00,
2016-08-25 07:37:00,65.3,63.0,30.29,SE,145,0.0,0.0,92,0.00,,,0.00,meteohub,2016-08-25 11:37:00,
2016-08-25 07:42:00,65.1,62.8,30.29,SW,235,0.0,0.0,92,0.00,,,0.00,meteohub,2016-08-25 11:42:00,
2016-08-25 07:47:00,65.1,62.8,30.29,SW,235,0.0,0.0,92,0.00,,,0.00,meteohub,2016-08-25 11:47:00,
2016-08-25 07:52:00,65.1,62.8,30.29,SSW,212,0.0,0.0,92,0.00,,,0.00,meteohub,2016-08-25 11:52:00,
2016-08-25 08:02:00,65.1,62.8,30.29,SW,235,0.0,0.0,92,0.00,,,0.00,meteohub,2016-08-25 12:02:00,
2016-08-25 08:07:00,65.3,63.0,30.29,SE,145,0.0,2.0,92,0.00,,,0.00,meteohub,2016-08-25 12:07:00,
2016-08-25 08:22:00,65.7,63.3,30.26,East,100,2.0,2.0,92,0.00,,,0.00,meteohub,2016-08-25 12:22:00,
2016-08-25 08:27:00,65.7,63.3,30.26,NNW,348,2.0,2.0,92,0.00,,,0.00,meteohub,2016-08-25 12:27:00,
2016-08-25 08:32:00,65.8,63.5,30.26,WNW,302,0.0,3.0,92,0.00,,,0.00,meteohub,2016-08-25 12:32:00,
2016-08-25 08:37:00,66.0,63.7,30.26,SSW,212,0.0,3.0,92,0.00,,,0.00,meteohub,2016-08-25 12:37:00,
2016-08-25 08:47:00,66.2,63.9,30.26,SSW,212,0.0,3.0,92,0.00,,,0.00,meteohub,2016-08-25 12:47:00,
2016-08-25 08:52:00,66.2,63.9,30.29,NW,325,0.0,0.0,92,0.00,,,0.00,meteohub,2016-08-25 12:52:00,
2016-08-25 09:02:00,66.4,64.0,30.29,NW,325,0.0,2.0,92,0.00,,,0.00,meteohub,2016-08-25 13:02:00,
2016-08-25 09:07:00,66.4,64.0,30.26,NNE,32,0.0,0.0,92,0.00,,,0.00,meteohub,2016-08-25 13:07:00,
2016-08-25 09:12:00,66.4,64.0,30.26,North,10,0.0,0.0,92,0.00,,,0.00,meteohub,2016-08-25 13:12:00,
2016-08-25 09:17:00,66.6,64.2,30.29,WNW,302,0.0,0.0,92,0.00,,,0.00,meteohub,2016-08-25 13:17:00,
2016-08-25 09:22:00,66.7,64.4,30.29,WNW,302,0.0,4.0,92,0.00,,,0.00,meteohub,2016-08-25 13:22:00,
2016-08-25 09:27:00,66.9,64.6,30.29,West,280,0.0,4.0,92,0.00,,,0.00,meteohub,2016-08-25 13:27:00,
2016-08-25 09:32:00,66.9,64.6,30.29,West,280,0.0,4.0,92,0.00,,,0.00,meteohub,2016-08-25 13:32:00,
2016-08-25 09:37:00,67.1,64.8,30.29,WNW,302,0.0,4.0,92,0.00,,,0.00,meteohub,2016-08-25 13:37:00,
2016-08-25 09:42:00,67.3,64.9,30.29,NW,325,0.0,4.0,92,0.00,,,0.00,meteohub,2016-08-25 13:42:00,
2016-08-25 09:47:00,67.3,64.9,30.32,WNW,302,2.0,5.0,92,0.00,,,0.00,meteohub,2016-08-25 13:47:00,
2016-08-25 09:52:00,67.6,65.3,30.32,NW,325,4.0,5.0,92,0.00,,,0.00,meteohub,2016-08-25 13:52:00,
2016-08-25 09:57:00,68.0,65.7,30.32,WNW,302,0.0,5.0,92,0.00,,,0.00,meteohub,2016-08-25 13:57:00,